Galva, Kansas
Current Conditions -  °F | °C
As of 10:15 AM on Thursday 30 Oct 2014 (Local Time) from KEWK Reporting Station
Clear Clear  
Wind Chill: 57°   Ceiling: Unl
Heat Index: 57°   Visibility: 10mi
Dew Point: 36°   Wind: 15mph
Humidity: 44%   Direction: 340°NNW
Pressure: 30.15"   Gusts: 23mph
Location:  38.38°N, 97.54°W
Report Text: KEWK 301515Z AUTO 34013G20KT 10SM CLR 14/02 A3015 RMK AO1
Loading
Personal Weather Stations






























Interactive Weather Map
Tropical Storm Tracking
New forecast layout! Learn more

10-Day Weather Forecast

Advertisements
Track Severe Weather on mobile